Time;durP1;ratioP1;P1;durP2;ratioP2;P2;SDS_P1;SDS_P2;PMS_P1;PMS_P2;Temp;Humidity;BMP_temperature;BMP_pressure;BME280_temperature;BME280_humidity;BME280_pressure;Samples;Min_cycle;Max_cycle;Signal;HPM_P1;HPM_P2
2023/12/11 00:02:12;;;;;;;12.33;6.70;;;;;;;;;;4991451;28;20229;-70
2023/12/11 00:04:37;;;;;;;13.40;6.80;;;;;;;;;;4979597;28;20222;-71
2023/12/11 00:07:03;;;;;;;11.27;6.20;;;;;;;;;;4976658;28;20321;-71
2023/12/11 00:09:28;;;;;;;12.37;6.77;;;;;;;;;;4992178;28;20239;-71
2023/12/11 00:11:53;;;;;;;13.00;6.77;;;;;;;;;;4992084;28;20239;-70
2023/12/11 00:14:19;;;;;;;11.83;7.00;;;;;;;;;;4987973;28;20224;-70
2023/12/11 00:16:45;;;;;;;13.60;7.37;;;;;;;;;;4988275;28;20727;-71
2023/12/11 00:19:11;;;;;;;13.20;7.20;;;;;;;;;;4987692;28;20225;-71
2023/12/11 00:21:36;;;;;;;12.37;7.17;;;;;;;;;;4994830;28;20223;-71
2023/12/11 00:24:03;;;;;;;13.37;7.50;;;;;;;;;;4992897;28;20253;-70
2023/12/11 00:26:28;;;;;;;15.10;7.50;;;;;;;;;;4994145;28;20223;-71
2023/12/11 00:28:53;;;;;;;13.43;7.73;;;;;;;;;;4996291;28;20293;-70
2023/12/11 00:31:19;;;;;;;13.50;7.40;;;;;;;;;;4994547;28;21084;-72
2023/12/11 00:33:44;;;;;;;13.47;7.57;;;;;;;;;;4991703;28;20219;-72
2023/12/11 00:36:09;;;;;;;13.93;7.27;;;;;;;;;;4993599;28;20288;-71
2023/12/11 00:38:35;;;;;;;14.87;7.20;;;;;;;;;;4991815;28;20235;-71
2023/12/11 00:41:00;;;;;;;13.43;7.17;;;;;;;;;;4991133;28;20214;-72
2023/12/11 00:43:25;;;;;;;16.87;8.07;;;;;;;;;;4992922;28;20226;-72
2023/12/11 00:45:51;;;;;;;14.17;7.63;;;;;;;;;;4994337;28;20278;-72
2023/12/11 00:48:16;;;;;;;13.10;7.30;;;;;;;;;;4991824;28;20215;-72
2023/12/11 00:50:41;;;;;;;14.83;7.40;;;;;;;;;;4998091;28;20288;-70
2023/12/11 00:53:07;;;;;;;14.57;7.47;;;;;;;;;;5003320;28;20223;-71
2023/12/11 00:55:32;;;;;;;12.93;7.07;;;;;;;;;;4993627;28;20293;-72
2023/12/11 00:57:57;;;;;;;14.20;7.17;;;;;;;;;;4980503;28;20307;-70
2023/12/11 01:00:23;;;;;;;14.97;7.33;;;;;;;;;;4996130;28;20297;-71
2023/12/11 01:02:48;;;;;;;14.90;7.63;;;;;;;;;;5003554;28;20305;-70
2023/12/11 01:05:13;;;;;;;13.17;7.07;;;;;;;;;;4995357;28;20254;-71
2023/12/11 01:07:39;;;;;;;12.73;7.03;;;;;;;;;;4978371;28;20326;-71
2023/12/11 01:10:04;;;;;;;13.93;7.17;;;;;;;;;;4993259;28;20233;-71
2023/12/11 01:12:30;;;;;;;13.63;6.97;;;;;;;;;;4994512;28;20301;-70
2023/12/11 01:14:55;;;;;;;14.73;7.30;;;;;;;;;;4986750;28;20314;-71
2023/12/11 01:17:20;;;;;;;13.20;7.20;;;;;;;;;;4995225;28;20331;-71
2023/12/11 01:19:47;;;;;;;14.00;6.80;;;;;;;;;;4997701;28;20226;-71
2023/12/11 01:22:12;;;;;;;14.10;7.10;;;;;;;;;;4980408;28;20218;-71
2023/12/11 01:24:37;;;;;;;13.20;6.97;;;;;;;;;;4991729;28;20309;-73
2023/12/11 01:27:03;;;;;;;14.23;7.07;;;;;;;;;;4991519;28;20230;-73
2023/12/11 01:29:28;;;;;;;14.10;6.90;;;;;;;;;;4988918;28;20243;-73
2023/12/11 01:31:54;;;;;;;14.40;7.07;;;;;;;;;;4992132;28;20254;-73
2023/12/11 01:34:19;;;;;;;12.93;6.83;;;;;;;;;;4994322;28;20222;-73
2023/12/11 01:36:44;;;;;;;11.80;6.57;;;;;;;;;;5006156;28;20649;-73
2023/12/11 01:39:10;;;;;;;12.37;6.70;;;;;;;;;;4990681;28;20874;-72
2023/12/11 01:41:35;;;;;;;14.57;7.33;;;;;;;;;;4993065;28;20680;-72
2023/12/11 01:44:00;;;;;;;14.30;7.57;;;;;;;;;;4984614;28;20739;-71
2023/12/11 01:46:26;;;;;;;13.43;7.30;;;;;;;;;;5001831;28;20280;-72
2023/12/11 01:48:51;;;;;;;16.90;7.57;;;;;;;;;;4992247;28;20289;-71
2023/12/11 01:51:16;;;;;;;14.37;6.90;;;;;;;;;;4993135;28;20234;-72
2023/12/11 01:53:42;;;;;;;12.97;7.00;;;;;;;;;;5000203;28;20223;-71
2023/12/11 01:56:08;;;;;;;13.03;6.67;;;;;;;;;;4992204;28;20227;-71
2023/12/11 01:58:33;;;;;;;13.77;6.47;;;;;;;;;;4988670;28;20223;-71
2023/12/11 02:00:59;;;;;;;13.40;7.13;;;;;;;;;;5002011;28;20211;-70
2023/12/11 02:03:24;;;;;;;12.43;6.63;;;;;;;;;;5000840;28;20228;-71
2023/12/11 02:05:49;;;;;;;14.03;6.73;;;;;;;;;;4992218;28;20219;-71
2023/12/11 02:08:15;;;;;;;13.27;6.77;;;;;;;;;;4994430;28;20227;-70
2023/12/11 02:10:40;;;;;;;11.13;6.03;;;;;;;;;;4999384;28;20234;-70
2023/12/11 02:13:06;;;;;;;10.67;5.83;;;;;;;;;;4991548;28;20660;-71
2023/12/11 02:15:40;;;;;;;11.23;5.97;;;;;;;;;;4974369;28;20254;-71
2023/12/11 02:18:06;;;;;;;10.13;5.73;;;;;;;;;;4979831;28;20210;-71
2023/12/11 02:20:32;;;;;;;10.57;5.60;;;;;;;;;;4991496;28;20704;-71
2023/12/11 02:22:57;;;;;;;11.67;6.00;;;;;;;;;;4991897;28;20614;-71
2023/12/11 02:25:22;;;;;;;10.17;5.63;;;;;;;;;;4999530;28;20256;-71
2023/12/11 02:27:48;;;;;;;9.73;5.20;;;;;;;;;;5001108;28;20219;-71
2023/12/11 02:30:13;;;;;;;10.57;5.23;;;;;;;;;;4984660;28;20333;-72
2023/12/11 02:32:39;;;;;;;9.73;5.30;;;;;;;;;;4991530;28;20619;-71
2023/12/11 02:35:04;;;;;;;11.50;6.00;;;;;;;;;;4990550;28;20332;-73
2023/12/11 02:37:29;;;;;;;9.80;5.83;;;;;;;;;;4992388;28;20234;-73
2023/12/11 02:39:55;;;;;;;9.97;5.67;;;;;;;;;;4985598;28;20262;-72
2023/12/11 02:42:20;;;;;;;9.73;5.67;;;;;;;;;;4974794;28;20219;-71
2023/12/11 02:44:45;;;;;;;9.43;5.50;;;;;;;;;;4994235;28;20242;-71
2023/12/11 02:47:11;;;;;;;7.97;5.00;;;;;;;;;;4989465;28;20227;-71
2023/12/11 02:49:36;;;;;;;10.80;5.67;;;;;;;;;;4978180;28;20230;-70
2023/12/11 02:52:01;;;;;;;11.23;5.80;;;;;;;;;;4978830;28;20234;-71
2023/12/11 02:54:27;;;;;;;9.67;5.67;;;;;;;;;;4980434;28;20235;-70
2023/12/11 02:56:52;;;;;;;10.80;5.80;;;;;;;;;;4988012;28;20228;-72
2023/12/11 02:59:17;;;;;;;10.27;5.73;;;;;;;;;;4977763;28;20231;-71
2023/12/11 03:01:43;;;;;;;9.83;5.57;;;;;;;;;;4988404;28;20228;-71
2023/12/11 03:04:08;;;;;;;9.93;5.47;;;;;;;;;;4999139;28;20238;-71
2023/12/11 03:06:33;;;;;;;9.07;5.20;;;;;;;;;;4977310;28;20227;-72
2023/12/11 03:09:02;;;;;;;8.63;4.73;;;;;;;;;;4999076;28;20744;-71
2023/12/11 03:11:27;;;;;;;9.87;5.27;;;;;;;;;;4990035;28;20270;-71
2023/12/11 03:13:53;;;;;;;7.33;4.50;;;;;;;;;;4994445;28;20296;-71
2023/12/11 03:16:18;;;;;;;8.23;4.63;;;;;;;;;;4987648;28;20266;-72
2023/12/11 03:18:43;;;;;;;8.53;4.53;;;;;;;;;;4990194;28;20223;-73
2023/12/11 03:21:09;;;;;;;8.57;4.67;;;;;;;;;;4999503;28;20895;-73
2023/12/11 03:23:34;;;;;;;6.67;4.13;;;;;;;;;;4999135;28;20662;-73
2023/12/11 03:25:59;;;;;;;7.27;4.07;;;;;;;;;;4991732;28;20234;-72
2023/12/11 03:28:28;;;;;;;6.80;4.10;;;;;;;;;;4992876;28;20227;-73
2023/12/11 03:30:53;;;;;;;6.77;4.30;;;;;;;;;;4988948;28;20277;-73
2023/12/11 03:33:18;;;;;;;8.80;4.37;;;;;;;;;;4983890;28;20301;-73
2023/12/11 03:35:44;;;;;;;7.63;4.23;;;;;;;;;;4991623;28;20249;-72
2023/12/11 03:38:09;;;;;;;7.40;4.53;;;;;;;;;;4989981;28;20231;-73
2023/12/11 03:40:34;;;;;;;9.10;4.70;;;;;;;;;;4989984;28;20226;-72
2023/12/11 03:43:00;;;;;;;7.60;4.40;;;;;;;;;;4990161;28;20230;-72
2023/12/11 03:45:25;;;;;;;8.03;4.70;;;;;;;;;;4991128;28;20252;-72
2023/12/11 03:47:51;;;;;;;7.17;4.53;;;;;;;;;;4993814;28;20692;-72
2023/12/11 03:50:16;;;;;;;8.77;4.57;;;;;;;;;;4972590;28;20238;-73
2023/12/11 03:52:41;;;;;;;9.07;4.90;;;;;;;;;;4987667;28;20223;-74
2023/12/11 03:55:07;;;;;;;10.83;4.70;;;;;;;;;;4986402;28;20280;-72
2023/12/11 03:57:32;;;;;;;10.53;5.60;;;;;;;;;;4979334;28;20230;-72
2023/12/11 03:59:58;;;;;;;11.97;6.60;;;;;;;;;;4991806;28;20225;-73
2023/12/11 04:02:23;;;;;;;12.60;6.60;;;;;;;;;;4987712;28;20693;-73
2023/12/11 04:04:49;;;;;;;12.83;6.37;;;;;;;;;;4990609;28;20220;-73
2023/12/11 04:07:14;;;;;;;10.17;5.97;;;;;;;;;;4989374;28;20288;-72
2023/12/11 04:09:40;;;;;;;10.63;6.20;;;;;;;;;;4986220;28;20406;-72
2023/12/11 04:12:05;;;;;;;11.40;6.10;;;;;;;;;;4991653;28;20239;-73
2023/12/11 04:14:30;;;;;;;9.57;5.60;;;;;;;;;;4972241;28;20226;-72
2023/12/11 04:16:56;;;;;;;9.77;5.57;;;;;;;;;;4988248;28;20228;-73
2023/12/11 04:19:21;;;;;;;11.30;5.60;;;;;;;;;;4985295;28;20247;-71
2023/12/11 04:21:46;;;;;;;10.17;5.20;;;;;;;;;;4972416;28;20227;-71
2023/12/11 04:24:12;;;;;;;9.10;5.40;;;;;;;;;;4987500;28;20281;-73
2023/12/11 04:26:37;;;;;;;8.70;4.80;;;;;;;;;;4975795;28;20310;-73
2023/12/11 04:29:02;;;;;;;9.50;5.13;;;;;;;;;;4992510;28;20222;-72
2023/12/11 04:31:28;;;;;;;8.70;5.40;;;;;;;;;;4972611;28;20327;-72
2023/12/11 04:33:53;;;;;;;11.37;5.30;;;;;;;;;;4990887;28;20253;-71
2023/12/11 04:36:19;;;;;;;12.47;5.37;;;;;;;;;;4988948;28;20781;-71
2023/12/11 04:38:44;;;;;;;11.10;5.20;;;;;;;;;;4975169;28;20819;-71
2023/12/11 04:41:09;;;;;;;9.70;5.47;;;;;;;;;;4998014;28;20880;-70
2023/12/11 04:43:34;;;;;;;9.93;5.60;;;;;;;;;;4981237;28;20290;-71
2023/12/11 04:46:00;;;;;;;10.00;5.37;;;;;;;;;;4987096;28;20699;-72
2023/12/11 04:48:25;;;;;;;10.53;5.50;;;;;;;;;;4972396;28;20224;-72
2023/12/11 04:50:50;;;;;;;10.17;5.13;;;;;;;;;;4990864;28;20329;-71
2023/12/11 04:53:16;;;;;;;11.30;5.90;;;;;;;;;;4988572;28;20303;-71
2023/12/11 04:55:41;;;;;;;10.30;6.00;;;;;;;;;;4987382;28;20231;-73
2023/12/11 04:58:07;;;;;;;10.17;5.60;;;;;;;;;;4990488;28;20230;-72
2023/12/11 05:00:32;;;;;;;10.20;5.60;;;;;;;;;;4985315;28;20249;-73
2023/12/11 05:02:57;;;;;;;9.63;5.50;;;;;;;;;;4987851;28;20219;-72
2023/12/11 05:05:23;;;;;;;10.63;6.20;;;;;;;;;;4991099;28;20229;-73
2023/12/11 05:07:48;;;;;;;10.63;5.80;;;;;;;;;;4980442;28;20846;-72
2023/12/11 05:10:13;;;;;;;12.37;6.33;;;;;;;;;;4991286;28;20242;-73
2023/12/11 05:12:39;;;;;;;10.63;6.07;;;;;;;;;;4992359;28;20222;-71
2023/12/11 05:15:04;;;;;;;11.50;6.70;;;;;;;;;;4990308;28;20851;-71
2023/12/11 05:17:30;;;;;;;15.63;7.20;;;;;;;;;;4985868;28;20227;-74
2023/12/11 05:19:55;;;;;;;15.13;7.33;;;;;;;;;;4977084;28;20224;-74
2023/12/11 05:22:20;;;;;;;17.63;7.80;;;;;;;;;;4989740;28;20369;-74
2023/12/11 05:24:47;;;;;;;15.43;7.80;;;;;;;;;;4979049;28;20775;-73
2023/12/11 05:27:13;;;;;;;14.37;7.43;;;;;;;;;;4992079;28;20215;-73
2023/12/11 05:29:38;;;;;;;14.97;7.50;;;;;;;;;;4990715;28;20230;-72
2023/12/11 05:32:04;;;;;;;14.90;7.20;;;;;;;;;;4996349;28;20243;-72
2023/12/11 05:34:29;;;;;;;14.17;6.50;;;;;;;;;;4979960;28;20250;-72
2023/12/11 05:36:55;;;;;;;13.70;6.90;;;;;;;;;;4978644;28;20859;-72
2023/12/11 05:39:20;;;;;;;12.90;6.87;;;;;;;;;;4978022;28;20330;-73
2023/12/11 05:41:45;;;;;;;15.63;7.07;;;;;;;;;;4994525;28;20280;-72
2023/12/11 05:44:11;;;;;;;12.67;6.33;;;;;;;;;;4984923;28;20231;-72
2023/12/11 05:46:36;;;;;;;12.50;6.50;;;;;;;;;;4992289;28;20289;-71
2023/12/11 05:49:01;;;;;;;12.63;6.50;;;;;;;;;;4992472;28;20241;-74
2023/12/11 05:51:28;;;;;;;11.80;6.27;;;;;;;;;;4991186;28;20230;-73
2023/12/11 05:53:55;;;;;;;12.17;6.30;;;;;;;;;;4990370;28;20254;-73
2023/12/11 05:56:20;;;;;;;10.23;5.50;;;;;;;;;;4987406;28;20216;-73
2023/12/11 05:58:46;;;;;;;9.97;5.67;;;;;;;;;;4987051;28;20241;-72
2023/12/11 06:01:11;;;;;;;11.73;6.07;;;;;;;;;;4994831;28;20226;-73
2023/12/11 06:03:37;;;;;;;14.13;6.23;;;;;;;;;;4990612;28;20227;-73
2023/12/11 06:06:02;;;;;;;11.70;6.33;;;;;;;;;;4999017;28;20554;-73
2023/12/11 06:08:27;;;;;;;13.13;6.23;;;;;;;;;;4992382;28;20227;-73
2023/12/11 06:10:53;;;;;;;12.57;6.80;;;;;;;;;;4992894;28;20304;-73
2023/12/11 06:13:18;;;;;;;12.40;6.33;;;;;;;;;;4989650;28;20781;-74
2023/12/11 06:15:43;;;;;;;12.67;6.07;;;;;;;;;;4975649;28;21180;-71
2023/12/11 06:18:09;;;;;;;13.33;6.67;;;;;;;;;;4984315;28;20227;-73
2023/12/11 06:20:34;;;;;;;12.10;6.27;;;;;;;;;;4993275;28;20271;-73
2023/12/11 06:22:59;;;;;;;12.27;6.63;;;;;;;;;;4996150;28;20454;-73
2023/12/11 06:25:25;;;;;;;12.60;6.80;;;;;;;;;;4992991;28;20631;-73
2023/12/11 06:27:50;;;;;;;13.20;6.97;;;;;;;;;;4966787;28;20235;-74
2023/12/11 06:30:15;;;;;;;12.57;6.30;;;;;;;;;;4991020;28;20238;-73
2023/12/11 06:32:41;;;;;;;12.53;6.57;;;;;;;;;;4978653;28;20335;-73
2023/12/11 06:35:06;;;;;;;13.30;6.60;;;;;;;;;;4984886;28;20268;-74
2023/12/11 06:37:31;;;;;;;11.13;6.30;;;;;;;;;;4991471;28;20713;-73
2023/12/11 06:39:57;;;;;;;11.53;6.10;;;;;;;;;;4984148;28;20231;-74
2023/12/11 06:42:22;;;;;;;11.37;6.23;;;;;;;;;;4974009;28;20270;-74
2023/12/11 06:44:47;;;;;;;10.93;6.03;;;;;;;;;;4992486;28;20258;-75
2023/12/11 06:47:13;;;;;;;11.53;6.30;;;;;;;;;;4989172;28;20227;-75
2023/12/11 06:49:39;;;;;;;11.73;6.27;;;;;;;;;;4997890;28;20738;-74
2023/12/11 06:52:04;;;;;;;13.10;6.60;;;;;;;;;;4987974;28;20319;-74
2023/12/11 06:54:30;;;;;;;11.87;6.43;;;;;;;;;;4987528;28;20294;-74
2023/12/11 06:56:55;;;;;;;13.97;6.33;;;;;;;;;;4991640;28;20811;-74
2023/12/11 06:59:21;;;;;;;13.43;7.27;;;;;;;;;;4992979;28;20268;-73
2023/12/11 07:01:47;;;;;;;15.00;6.90;;;;;;;;;;4993087;28;20700;-73
2023/12/11 07:04:12;;;;;;;13.23;6.80;;;;;;;;;;4989416;28;20274;-73
2023/12/11 07:06:38;;;;;;;14.97;7.37;;;;;;;;;;4979845;28;20289;-73
2023/12/11 07:09:03;;;;;;;17.73;7.60;;;;;;;;;;4968915;28;20223;-73
2023/12/11 07:11:28;;;;;;;18.63;7.77;;;;;;;;;;4990782;28;20242;-72
2023/12/11 07:13:54;;;;;;;18.73;7.50;;;;;;;;;;4989847;28;20842;-71
2023/12/11 07:16:19;;;;;;;17.77;8.23;;;;;;;;;;4989332;28;20342;-72
2023/12/11 07:18:44;;;;;;;18.00;7.60;;;;;;;;;;4990233;28;20239;-72
2023/12/11 07:21:10;;;;;;;16.43;7.97;;;;;;;;;;4992007;28;20231;-72
2023/12/11 07:23:36;;;;;;;20.30;8.40;;;;;;;;;;4976647;28;20235;-72
2023/12/11 07:26:01;;;;;;;18.63;8.27;;;;;;;;;;4989112;28;20224;-72
2023/12/11 07:28:27;;;;;;;16.77;7.80;;;;;;;;;;4988807;28;20227;-72
2023/12/11 07:30:52;;;;;;;18.77;8.93;;;;;;;;;;4998129;28;20254;-71
2023/12/11 07:33:17;;;;;;;17.33;8.03;;;;;;;;;;4990843;28;20223;-73
2023/12/11 07:35:43;;;;;;;17.27;7.70;;;;;;;;;;4989787;28;20270;-74
2023/12/11 07:38:08;;;;;;;20.77;8.10;;;;;;;;;;4988122;28;20310;-73
2023/12/11 07:40:33;;;;;;;16.50;7.83;;;;;;;;;;4991284;28;20234;-73
2023/12/11 07:43:01;;;;;;;16.63;8.03;;;;;;;;;;4990710;28;20234;-73
2023/12/11 07:45:27;;;;;;;17.17;7.67;;;;;;;;;;4982172;28;20261;-73
2023/12/11 07:47:53;;;;;;;17.23;7.83;;;;;;;;;;4993705;28;20764;-72
2023/12/11 07:50:19;;;;;;;18.60;8.10;;;;;;;;;;4989687;28;20895;-74
2023/12/11 07:52:44;;;;;;;14.43;7.43;;;;;;;;;;4974322;28;20227;-73
2023/12/11 07:55:09;;;;;;;14.80;6.30;;;;;;;;;;4983952;28;20308;-75
2023/12/11 07:57:35;;;;;;;12.87;5.87;;;;;;;;;;4987632;28;20231;-73
2023/12/11 08:00:01;;;;;;;11.40;6.17;;;;;;;;;;4991059;28;20302;-73
2023/12/11 08:02:26;;;;;;;13.43;6.00;;;;;;;;;;4991862;28;20233;-73
2023/12/11 08:04:52;;;;;;;13.57;6.10;;;;;;;;;;4976679;28;20223;-74
2023/12/11 08:07:18;;;;;;;15.07;6.17;;;;;;;;;;4969916;28;20231;-74
2023/12/11 08:09:43;;;;;;;13.07;6.40;;;;;;;;;;4991522;28;20223;-74
2023/12/11 08:12:09;;;;;;;17.53;7.23;;;;;;;;;;4973308;28;20296;-75
2023/12/11 08:14:34;;;;;;;15.27;7.37;;;;;;;;;;4976217;28;20901;-73
2023/12/11 08:16:59;;;;;;;14.53;6.73;;;;;;;;;;4975885;28;20229;-73
2023/12/11 08:19:25;;;;;;;13.23;6.40;;;;;;;;;;4991541;28;20239;-74
2023/12/11 08:21:50;;;;;;;14.00;7.07;;;;;;;;;;4989986;28;20223;-73
2023/12/11 08:24:16;;;;;;;11.70;6.70;;;;;;;;;;4988569;28;20234;-73
2023/12/11 08:26:42;;;;;;;12.67;6.47;;;;;;;;;;4990162;28;20237;-74
2023/12/11 08:29:07;;;;;;;15.37;6.70;;;;;;;;;;4990496;28;20223;-74
2023/12/11 08:31:33;;;;;;;14.87;6.43;;;;;;;;;;4999007;28;20761;-74
2023/12/11 08:33:58;;;;;;;12.30;6.60;;;;;;;;;;4995991;28;20219;-74
2023/12/11 08:36:23;;;;;;;14.93;7.17;;;;;;;;;;4992367;28;20229;-72
2023/12/11 08:38:49;;;;;;;13.27;6.47;;;;;;;;;;4992122;28;20236;-74
2023/12/11 08:41:14;;;;;;;13.13;6.83;;;;;;;;;;4993311;28;20231;-74
2023/12/11 08:43:39;;;;;;;14.30;7.30;;;;;;;;;;5002297;28;20233;-73
2023/12/11 08:46:05;;;;;;;14.90;7.23;;;;;;;;;;4995808;28;20218;-74
2023/12/11 08:48:30;;;;;;;15.57;6.57;;;;;;;;;;4989837;28;20234;-73
2023/12/11 08:50:56;;;;;;;12.73;6.47;;;;;;;;;;4976360;28;20239;-74
2023/12/11 08:53:21;;;;;;;15.47;6.60;;;;;;;;;;4993239;28;20273;-73
2023/12/11 08:55:47;;;;;;;11.90;6.20;;;;;;;;;;4994379;28;20350;-74
2023/12/11 08:58:12;;;;;;;15.40;7.20;;;;;;;;;;4990943;28;20238;-73
2023/12/11 09:00:37;;;;;;;14.87;7.20;;;;;;;;;;4995281;28;20633;-73
2023/12/11 09:03:03;;;;;;;14.97;6.90;;;;;;;;;;4993503;28;20686;-73
2023/12/11 09:05:28;;;;;;;11.97;6.40;;;;;;;;;;4979985;28;20554;-73
2023/12/11 09:07:55;;;;;;;17.97;8.60;;;;;;;;;;4981400;28;20223;-73
2023/12/11 09:10:20;;;;;;;13.63;6.80;;;;;;;;;;5001269;28;20231;-73
2023/12/11 09:12:46;;;;;;;16.53;7.17;;;;;;;;;;4977279;28;20218;-73
2023/12/11 09:15:11;;;;;;;13.57;6.80;;;;;;;;;;4991635;28;20652;-73
2023/12/11 09:17:36;;;;;;;15.07;6.83;;;;;;;;;;4992780;28;20230;-73
2023/12/11 09:20:04;;;;;;;14.30;6.70;;;;;;;;;;4985871;28;20227;-74
2023/12/11 09:22:29;;;;;;;12.73;6.50;;;;;;;;;;4993366;28;20258;-73
2023/12/11 09:24:55;;;;;;;11.23;5.07;;;;;;;;;;4993979;28;20251;-73
2023/12/11 09:27:21;;;;;;;12.03;4.90;;;;;;;;;;4977802;28;20255;-73
2023/12/11 09:29:49;;;;;;;9.70;5.00;;;;;;;;;;4981312;28;20223;-74
2023/12/11 09:32:15;;;;;;;9.80;5.60;;;;;;;;;;4993200;28;20766;-75
2023/12/11 09:34:41;;;;;;;11.53;5.43;;;;;;;;;;4991305;28;20238;-74
2023/12/11 09:37:06;;;;;;;10.90;5.80;;;;;;;;;;4992093;28;20223;-74
2023/12/11 09:39:31;;;;;;;11.17;5.40;;;;;;;;;;4989851;28;20319;-74
2023/12/11 09:41:57;;;;;;;12.90;5.73;;;;;;;;;;4984224;28;20234;-74
2023/12/11 09:44:22;;;;;;;11.30;5.73;;;;;;;;;;4988895;28;20242;-74
2023/12/11 09:46:50;;;;;;;12.73;5.57;;;;;;;;;;4992734;28;20923;-73
2023/12/11 09:49:16;;;;;;;10.37;5.63;;;;;;;;;;4993431;28;20223;-73
2023/12/11 09:51:41;;;;;;;10.73;5.60;;;;;;;;;;4990139;28;20227;-74
2023/12/11 09:54:07;;;;;;;13.97;5.57;;;;;;;;;;5002122;28;20788;-74
2023/12/11 09:56:33;;;;;;;9.47;5.33;;;;;;;;;;4990362;28;20227;-72
2023/12/11 09:58:58;;;;;;;12.03;6.10;;;;;;;;;;4976858;28;20302;-74
2023/12/11 10:01:23;;;;;;;12.03;6.07;;;;;;;;;;4996633;28;20999;-73
2023/12/11 10:03:49;;;;;;;9.63;5.30;;;;;;;;;;4992683;28;20999;-73
2023/12/11 10:06:14;;;;;;;10.83;5.67;;;;;;;;;;4994607;28;21156;-73
2023/12/11 10:08:42;;;;;;;10.80;5.53;;;;;;;;;;4988729;28;21330;-73
2023/12/11 10:11:12;;;;;;;10.63;5.33;;;;;;;;;;4978597;28;20262;-74
2023/12/11 10:13:38;;;;;;;9.57;5.17;;;;;;;;;;4989145;28;20280;-74
2023/12/11 10:16:04;;;;;;;9.13;5.10;;;;;;;;;;4981559;28;20219;-74
2023/12/11 10:18:29;;;;;;;11.97;5.30;;;;;;;;;;4989745;28;20240;-74
2023/12/11 10:20:57;;;;;;;12.07;5.00;;;;;;;;;;4993280;28;20621;-73
2023/12/11 10:23:22;;;;;;;9.10;4.67;;;;;;;;;;4989406;28;20584;-73
2023/12/11 10:25:48;;;;;;;11.17;4.67;;;;;;;;;;4977908;28;20229;-73
2023/12/11 10:28:14;;;;;;;8.63;4.90;;;;;;;;;;4990015;28;20712;-73
2023/12/11 10:30:52;;;;;;;10.77;5.10;;;;;;;;;;4978875;28;20234;-74
2023/12/11 10:33:18;;;;;;;9.67;4.77;;;;;;;;;;4991010;28;20223;-74
2023/12/11 10:35:43;;;;;;;10.30;4.90;;;;;;;;;;4987132;28;20234;-73
2023/12/11 10:38:09;;;;;;;9.70;4.87;;;;;;;;;;4985354;28;20227;-74
2023/12/11 10:40:41;;;;;;;9.17;4.83;;;;;;;;;;4975610;28;20301;-72
2023/12/11 10:43:06;;;;;;;11.30;5.00;;;;;;;;;;4990286;28;20234;-73
2023/12/11 10:45:32;;;;;;;9.93;5.07;;;;;;;;;;4992076;28;20219;-74
2023/12/11 10:47:57;;;;;;;11.07;4.63;;;;;;;;;;4992687;28;20222;-73
2023/12/11 10:50:22;;;;;;;10.27;5.00;;;;;;;;;;5000146;28;20250;-75
2023/12/11 10:52:48;;;;;;;10.23;4.83;;;;;;;;;;4991536;28;20310;-72
2023/12/11 10:55:13;;;;;;;10.73;5.00;;;;;;;;;;4989533;28;20946;-72
2023/12/11 10:57:39;;;;;;;10.20;5.27;;;;;;;;;;4976083;28;20764;-73
2023/12/11 11:00:04;;;;;;;11.03;5.00;;;;;;;;;;4991750;28;20645;-73
2023/12/11 11:02:30;;;;;;;9.07;4.60;;;;;;;;;;4990851;28;20231;-73
2023/12/11 11:04:55;;;;;;;9.93;4.57;;;;;;;;;;4989394;28;20607;-74
2023/12/11 11:07:23;;;;;;;7.70;4.70;;;;;;;;;;4991498;28;20223;-73
2023/12/11 11:09:58;;;;;;;13.13;5.23;;;;;;;;;;4999956;28;20219;-74
2023/12/11 11:12:42;;;;;;;9.87;4.87;;;;;;;;;;4991815;28;20358;-73
2023/12/11 11:15:09;;;;;;;9.30;4.90;;;;;;;;;;4990308;28;20223;-73
2023/12/11 11:17:53;;;;;;;12.37;5.27;;;;;;;;;;4993912;28;20231;-74
2023/12/11 11:20:19;;;;;;;8.80;4.93;;;;;;;;;;5005410;28;20763;-73
2023/12/11 11:22:45;;;;;;;11.83;4.77;;;;;;;;;;4970807;28;20274;-73
2023/12/11 11:25:29;;;;;;;8.97;4.73;;;;;;;;;;4985070;28;20222;-73
2023/12/11 11:27:54;;;;;;;8.63;4.70;;;;;;;;;;4974514;28;20231;-73
2023/12/11 11:30:38;;;;;;;11.53;4.77;;;;;;;;;;4991861;28;20223;-73
2023/12/11 11:33:04;;;;;;;9.60;5.00;;;;;;;;;;5006484;28;20227;-74
2023/12/11 11:35:45;;;;;;;9.33;4.80;;;;;;;;;;4989568;28;20246;-73
2023/12/11 11:38:10;;;;;;;11.93;5.40;;;;;;;;;;4992376;28;20270;-73
2023/12/11 11:40:36;;;;;;;10.70;5.50;;;;;;;;;;4998713;28;20314;-73
2023/12/11 11:43:03;;;;;;;10.57;5.67;;;;;;;;;;4988601;28;20236;-74
2023/12/11 11:45:29;;;;;;;10.83;5.23;;;;;;;;;;4994613;28;20622;-74
2023/12/11 11:47:54;;;;;;;12.30;5.53;;;;;;;;;;4987251;28;20226;-73
2023/12/11 11:50:19;;;;;;;11.43;5.27;;;;;;;;;;4997303;28;20227;-73
2023/12/11 11:52:46;;;;;;;11.17;5.20;;;;;;;;;;4988879;28;20830;-73
2023/12/11 11:55:11;;;;;;;17.30;7.77;;;;;;;;;;4983659;28;20219;-75
2023/12/11 11:57:37;;;;;;;14.53;6.87;;;;;;;;;;4992569;28;20280;-73
2023/12/11 12:00:05;;;;;;;17.60;9.73;;;;;;;;;;4983931;28;20296;-74
2023/12/11 12:02:31;;;;;;;25.30;13.97;;;;;;;;;;4991143;28;20230;-73
2023/12/11 12:05:01;;;;;;;12.70;6.20;;;;;;;;;;4992269;28;20227;-73
2023/12/11 12:07:28;;;;;;;16.40;6.43;;;;;;;;;;4988704;28;20229;-74
2023/12/11 12:09:53;;;;;;;11.93;6.50;;;;;;;;;;4991249;28;20218;-74
2023/12/11 12:12:18;;;;;;;12.13;6.60;;;;;;;;;;4990538;28;20227;-74
2023/12/11 12:14:44;;;;;;;14.00;6.27;;;;;;;;;;4982345;28;20302;-73
2023/12/11 12:17:10;;;;;;;17.60;6.33;;;;;;;;;;4979783;28;20262;-72
2023/12/11 12:19:35;;;;;;;13.53;6.37;;;;;;;;;;4994590;28;20352;-73
2023/12/11 12:22:03;;;;;;;14.27;6.23;;;;;;;;;;4993180;28;20301;-74
2023/12/11 12:24:29;;;;;;;12.43;6.20;;;;;;;;;;4986831;28;20325;-72
2023/12/11 12:27:01;;;;;;;13.03;6.00;;;;;;;;;;4994047;28;20286;-73
2023/12/11 12:29:26;;;;;;;13.60;6.63;;;;;;;;;;4980469;28;20721;-73
2023/12/11 12:31:52;;;;;;;15.13;6.30;;;;;;;;;;4996380;28;20230;-74
2023/12/11 12:34:17;;;;;;;15.13;5.80;;;;;;;;;;4992095;28;20258;-74
2023/12/11 12:36:43;;;;;;;13.23;6.13;;;;;;;;;;5002473;28;20301;-74
2023/12/11 12:39:11;;;;;;;12.30;6.20;;;;;;;;;;4979368;28;20261;-73
2023/12/11 12:41:36;;;;;;;15.20;6.23;;;;;;;;;;4987320;28;20652;-74
2023/12/11 12:44:01;;;;;;;15.90;6.83;;;;;;;;;;5002156;28;20250;-74
2023/12/11 12:46:27;;;;;;;19.03;7.97;;;;;;;;;;4985840;28;20314;-73
2023/12/11 12:48:52;;;;;;;21.43;9.00;;;;;;;;;;4993862;28;20230;-74
2023/12/11 12:51:18;;;;;;;21.63;11.27;;;;;;;;;;4992894;28;20281;-74
2023/12/11 12:53:47;;;;;;;20.37;8.87;;;;;;;;;;4995145;28;20223;-74
2023/12/11 12:56:16;;;;;;;19.57;9.57;;;;;;;;;;4980328;28;20226;-73
2023/12/11 12:58:41;;;;;;;22.57;9.57;;;;;;;;;;4984394;28;20302;-73
2023/12/11 13:01:06;;;;;;;20.90;9.10;;;;;;;;;;4990432;28;20223;-74
2023/12/11 13:03:33;;;;;;;70.77;28.30;;;;;;;;;;4976219;28;20261;-73
2023/12/11 13:05:59;;;;;;;51.17;21.63;;;;;;;;;;4980185;28;20224;-74
2023/12/11 13:08:24;;;;;;;31.93;13.43;;;;;;;;;;4993242;28;20317;-73
2023/12/11 13:10:54;;;;;;;35.23;14.47;;;;;;;;;;4996544;28;21143;-74
2023/12/11 13:13:21;;;;;;;26.60;11.20;;;;;;;;;;4981712;28;20223;-74
2023/12/11 13:15:47;;;;;;;24.23;9.73;;;;;;;;;;4991907;28;20229;-74
2023/12/11 13:18:15;;;;;;;35.23;13.63;;;;;;;;;;5001036;28;20219;-73
2023/12/11 13:20:41;;;;;;;25.77;11.07;;;;;;;;;;4992392;28;20306;-73
2023/12/11 13:23:06;;;;;;;35.67;12.70;;;;;;;;;;4988067;28;20311;-74
2023/12/11 13:25:31;;;;;;;34.03;12.50;;;;;;;;;;4989889;28;20223;-74
2023/12/11 13:27:57;;;;;;;24.53;9.70;;;;;;;;;;4990857;28;20321;-73
2023/12/11 13:30:22;;;;;;;32.23;12.17;;;;;;;;;;4994682;28;20235;-73
2023/12/11 13:32:48;;;;;;;29.23;10.37;;;;;;;;;;4978585;28;20254;-73
2023/12/11 13:35:13;;;;;;;44.10;15.63;;;;;;;;;;4993374;28;20612;-73
2023/12/11 13:37:38;;;;;;;46.63;15.77;;;;;;;;;;4989627;28;20230;-74
2023/12/11 13:40:07;;;;;;;32.13;11.23;;;;;;;;;;4993984;28;20238;-73
2023/12/11 13:42:32;;;;;;;32.07;10.10;;;;;;;;;;4994356;28;20233;-73
2023/12/11 13:44:58;;;;;;;26.00;9.33;;;;;;;;;;4995978;28;20215;-73
2023/12/11 13:47:24;;;;;;;28.40;11.07;;;;;;;;;;4992753;28;20418;-73
2023/12/11 13:49:49;;;;;;;18.90;8.57;;;;;;;;;;5006950;28;20783;-73
2023/12/11 13:52:14;;;;;;;33.60;11.97;;;;;;;;;;4990623;28;20230;-73
2023/12/11 13:54:40;;;;;;;18.93;8.53;;;;;;;;;;4990304;28;20226;-73
2023/12/11 13:57:05;;;;;;;20.30;7.50;;;;;;;;;;4992177;28;20247;-73
2023/12/11 13:59:30;;;;;;;64.03;22.10;;;;;;;;;;4987877;28;20243;-74
2023/12/11 14:01:57;;;;;;;74.47;29.57;;;;;;;;;;4988596;28;20230;-74
2023/12/11 14:04:24;;;;;;;69.27;25.83;;;;;;;;;;4990822;28;20230;-73
2023/12/11 14:06:49;;;;;;;25.87;9.93;;;;;;;;;;4994072;28;20250;-73
2023/12/11 14:09:15;;;;;;;21.17;9.40;;;;;;;;;;5000822;28;20219;-74
2023/12/11 14:11:40;;;;;;;29.53;11.77;;;;;;;;;;4992604;28;20234;-73
2023/12/11 14:14:06;;;;;;;64.10;28.53;;;;;;;;;;4992611;28;20633;-73
2023/12/11 14:16:32;;;;;;;36.23;16.07;;;;;;;;;;4978113;28;20289;-73
2023/12/11 14:18:57;;;;;;;32.03;13.10;;;;;;;;;;4989992;28;20726;-73
2023/12/11 14:21:22;;;;;;;27.33;11.50;;;;;;;;;;4990861;28;20228;-73
2023/12/11 14:23:48;;;;;;;26.97;9.50;;;;;;;;;;4989271;28;20700;-74